sensor_id;sensor_type;location;lat;lon;timestamp;pressure;altitude;pressure_sealevel;temperature
47484;BMP280;54076;50.322;18.650;2022-09-09T00:04:33;98785.19;;;18.22
47484;BMP280;54076;50.322;18.650;2022-09-09T00:09:49;98781.38;;;18.19
47484;BMP280;54076;50.322;18.650;2022-09-09T00:15:19;98784.98;;;18.14
47484;BMP280;54076;50.322;18.650;2022-09-09T00:31:31;98793.48;;;18.12
47484;BMP280;54076;50.322;18.650;2022-09-09T00:36:33;98793.40;;;18.04
47484;BMP280;54076;50.322;18.650;2022-09-09T00:42:19;98797.90;;;17.96
47484;BMP280;54076;50.322;18.650;2022-09-09T00:47:51;98798.76;;;17.89
47484;BMP280;54076;50.322;18.650;2022-09-09T00:58:19;98808.29;;;17.80
47484;BMP280;54076;50.322;18.650;2022-09-09T01:30:16;98830.14;;;17.72
47484;BMP280;54076;50.322;18.650;2022-09-09T01:40:47;98837.09;;;17.67
47484;BMP280;54076;50.322;18.650;2022-09-09T01:45:52;98839.35;;;17.62
47484;BMP280;54076;50.322;18.650;2022-09-09T01:50:54;98847.84;;;17.58
47484;BMP280;54076;50.322;18.650;2022-09-09T02:02:13;98850.89;;;17.52
47484;BMP280;54076;50.322;18.650;2022-09-09T02:07:42;98855.77;;;17.47
47484;BMP280;54076;50.322;18.650;2022-09-09T02:12:50;98854.85;;;17.46
47484;BMP280;54076;50.322;18.650;2022-09-09T02:17:55;98856.54;;;17.35
47484;BMP280;54076;50.322;18.650;2022-09-09T02:22:59;98857.59;;;17.32
47484;BMP280;54076;50.322;18.650;2022-09-09T02:28:01;98865.01;;;17.36
47484;BMP280;54076;50.322;18.650;2022-09-09T02:33:07;98869.70;;;17.38
47484;BMP280;54076;50.322;18.650;2022-09-09T02:38:13;98875.30;;;17.30
47484;BMP280;54076;50.322;18.650;2022-09-09T02:43:15;98873.39;;;17.23
47484;BMP280;54076;50.322;18.650;2022-09-09T02:48:36;98872.54;;;17.16
47484;BMP280;54076;50.322;18.650;2022-09-09T02:54:27;98876.29;;;17.12
47484;BMP280;54076;50.322;18.650;2022-09-09T02:59:32;98875.29;;;17.04
47484;BMP280;54076;50.322;18.650;2022-09-09T03:04:34;98877.94;;;17.01
47484;BMP280;54076;50.322;18.650;2022-09-09T03:09:35;98883.52;;;16.96
47484;BMP280;54076;50.322;18.650;2022-09-09T03:14:37;98885.19;;;16.88
47484;BMP280;54076;50.322;18.650;2022-09-09T03:19:38;98887.05;;;16.90
47484;BMP280;54076;50.322;18.650;2022-09-09T03:24:40;98892.55;;;16.90
47484;BMP280;54076;50.322;18.650;2022-09-09T03:29:41;98890.31;;;16.80
47484;BMP280;54076;50.322;18.650;2022-09-09T03:34:42;98889.64;;;16.78
47484;BMP280;54076;50.322;18.650;2022-09-09T03:39:43;98899.95;;;16.71
47484;BMP280;54076;50.322;18.650;2022-09-09T03:44:48;98900.45;;;16.50
47484;BMP280;54076;50.322;18.650;2022-09-09T03:49:51;98908.23;;;16.41
47484;BMP280;54076;50.322;18.650;2022-09-09T03:54:53;98909.13;;;16.42
47484;BMP280;54076;50.322;18.650;2022-09-09T03:59:54;98914.16;;;16.52
47484;BMP280;54076;50.322;18.650;2022-09-09T04:04:55;98912.45;;;16.42
47484;BMP280;54076;50.322;18.650;2022-09-09T04:09:56;98915.70;;;16.30
47484;BMP280;54076;50.322;18.650;2022-09-09T04:14:57;98922.06;;;16.25
47484;BMP280;54076;50.322;18.650;2022-09-09T04:19:59;98920.60;;;16.30
47484;BMP280;54076;50.322;18.650;2022-09-09T04:24:59;98920.90;;;16.21
47484;BMP280;54076;50.322;18.650;2022-09-09T04:30:00;98917.37;;;16.17
47484;BMP280;54076;50.322;18.650;2022-09-09T04:35:02;98925.05;;;16.21
47484;BMP280;54076;50.322;18.650;2022-09-09T04:40:04;98921.36;;;16.14
47484;BMP280;54076;50.322;18.650;2022-09-09T04:45:06;98923.70;;;16.19
47484;BMP280;54076;50.322;18.650;2022-09-09T04:50:08;98925.17;;;16.20
47484;BMP280;54076;50.322;18.650;2022-09-09T04:55:10;98927.88;;;16.25
47484;BMP280;54076;50.322;18.650;2022-09-09T05:00:12;98936.75;;;16.25
47484;BMP280;54076;50.322;18.650;2022-09-09T05:05:13;98937.20;;;16.26
47484;BMP280;54076;50.322;18.650;2022-09-09T05:10:15;98932.36;;;16.30
47484;BMP280;54076;50.322;18.650;2022-09-09T05:15:17;98940.34;;;16.31
47484;BMP280;54076;50.322;18.650;2022-09-09T05:20:18;98950.45;;;16.41
47484;BMP280;54076;50.322;18.650;2022-09-09T05:25:19;98950.29;;;16.47
47484;BMP280;54076;50.322;18.650;2022-09-09T05:30:21;98951.60;;;16.53
47484;BMP280;54076;50.322;18.650;2022-09-09T05:35:23;98952.10;;;16.58
47484;BMP280;54076;50.322;18.650;2022-09-09T05:40:24;98950.36;;;16.71
47484;BMP280;54076;50.322;18.650;2022-09-09T05:45:25;98952.32;;;16.83
47484;BMP280;54076;50.322;18.650;2022-09-09T05:50:26;98953.27;;;16.73
47484;BMP280;54076;50.322;18.650;2022-09-09T05:55:28;98959.10;;;16.74
47484;BMP280;54076;50.322;18.650;2022-09-09T06:00:29;98956.70;;;16.79
47484;BMP280;54076;50.322;18.650;2022-09-09T06:05:32;98960.95;;;17.02
47484;BMP280;54076;50.322;18.650;2022-09-09T06:10:35;98958.86;;;17.15
47484;BMP280;54076;50.322;18.650;2022-09-09T06:15:36;98959.24;;;17.24
47484;BMP280;54076;50.322;18.650;2022-09-09T06:20:38;98956.99;;;17.80
47484;BMP280;54076;50.322;18.650;2022-09-09T06:25:39;98957.46;;;18.25
47484;BMP280;54076;50.322;18.650;2022-09-09T06:30:41;98953.38;;;18.32
47484;BMP280;54076;50.322;18.650;2022-09-09T06:35:51;98964.19;;;18.36
47484;BMP280;54076;50.322;18.650;2022-09-09T06:40:55;98953.84;;;18.33
47484;BMP280;54076;50.322;18.650;2022-09-09T06:46:00;98950.45;;;18.48
47484;BMP280;54076;50.322;18.650;2022-09-09T06:51:08;98953.29;;;18.28
47484;BMP280;54076;50.322;18.650;2022-09-09T07:01:14;98937.02;;;18.78
47484;BMP280;54076;50.322;18.650;2022-09-09T07:06:23;98934.67;;;18.88
47484;BMP280;54076;50.322;18.650;2022-09-09T07:11:28;98930.60;;;18.95
47484;BMP280;54076;50.322;18.650;2022-09-09T07:16:30;98932.44;;;18.99
47484;BMP280;54076;50.322;18.650;2022-09-09T07:21:34;98926.98;;;19.02
47484;BMP280;54076;50.322;18.650;2022-09-09T07:26:37;98928.38;;;19.33
47484;BMP280;54076;50.322;18.650;2022-09-09T07:31:39;98929.06;;;19.57
47484;BMP280;54076;50.322;18.650;2022-09-09T07:36:40;98936.45;;;19.68
47484;BMP280;54076;50.322;18.650;2022-09-09T07:41:46;98942.28;;;19.76
47484;BMP280;54076;50.322;18.650;2022-09-09T07:46:47;98943.14;;;19.88
47484;BMP280;54076;50.322;18.650;2022-09-09T07:51:49;98943.14;;;20.07
47484;BMP280;54076;50.322;18.650;2022-09-09T07:56:51;98952.21;;;20.22
47484;BMP280;54076;50.322;18.650;2022-09-09T08:01:52;98952.70;;;20.33
47484;BMP280;54076;50.322;18.650;2022-09-09T08:06:59;98959.98;;;20.46
47484;BMP280;54076;50.322;18.650;2022-09-09T08:12:01;98959.48;;;20.74
47484;BMP280;54076;50.322;18.650;2022-09-09T08:17:02;98954.10;;;20.80
47484;BMP280;54076;50.322;18.650;2022-09-09T08:22:04;98951.80;;;21.06
47484;BMP280;54076;50.322;18.650;2022-09-09T08:27:05;98948.08;;;20.96
47484;BMP280;54076;50.322;18.650;2022-09-09T08:32:06;98954.55;;;21.10
47484;BMP280;54076;50.322;18.650;2022-09-09T08:37:07;98954.66;;;21.16
47484;BMP280;54076;50.322;18.650;2022-09-09T08:42:35;98952.08;;;21.20
47484;BMP280;54076;50.322;18.650;2022-09-09T08:48:14;98963.10;;;21.40
47484;BMP280;54076;50.322;18.650;2022-09-09T08:53:23;98961.29;;;21.33
47484;BMP280;54076;50.322;18.650;2022-09-09T08:58:28;98966.30;;;21.67
47484;BMP280;54076;50.322;18.650;2022-09-09T09:08:59;98967.50;;;21.79
47484;BMP280;54076;50.322;18.650;2022-09-09T09:14:09;98962.77;;;21.64
47484;BMP280;54076;50.322;18.650;2022-09-09T09:19:14;98958.64;;;21.69
47484;BMP280;54076;50.322;18.650;2022-09-09T09:29:56;98941.14;;;21.76
47484;BMP280;54076;50.322;18.650;2022-09-09T09:34:59;98941.87;;;22.03
47484;BMP280;54076;50.322;18.650;2022-09-09T09:40:18;98939.18;;;22.10
47484;BMP280;54076;50.322;18.650;2022-09-09T09:45:43;98947.95;;;22.27
47484;BMP280;54076;50.322;18.650;2022-09-09T09:50:59;98953.48;;;22.50
47484;BMP280;54076;50.322;18.650;2022-09-09T09:56:05;98957.85;;;22.66
47484;BMP280;54076;50.322;18.650;2022-09-09T10:01:28;98946.39;;;22.79
47484;BMP280;54076;50.322;18.650;2022-09-09T10:06:36;98939.89;;;23.18
47484;BMP280;54076;50.322;18.650;2022-09-09T10:22:32;98953.04;;;23.92
47484;BMP280;54076;50.322;18.650;2022-09-09T10:33:49;98969.54;;;24.64
47484;BMP280;54076;50.322;18.650;2022-09-09T10:39:32;98985.45;;;24.08
47484;BMP280;54076;50.322;18.650;2022-09-09T10:50:28;98984.69;;;25.39
47484;BMP280;54076;50.322;18.650;2022-09-09T10:55:28;98977.51;;;26.16
47484;BMP280;54076;50.322;18.650;2022-09-09T11:00:45;98985.22;;;27.22
47484;BMP280;54076;50.322;18.650;2022-09-09T11:06:03;98955.68;;;25.49
47484;BMP280;54076;50.322;18.650;2022-09-09T11:11:14;98968.79;;;23.89
47484;BMP280;54076;50.322;18.650;2022-09-09T11:16:47;98985.48;;;26.46
47484;BMP280;54076;50.322;18.650;2022-09-09T11:21:52;98960.70;;;25.76
47484;BMP280;54076;50.322;18.650;2022-09-09T11:27:13;98954.11;;;25.08
47484;BMP280;54076;50.322;18.650;2022-09-09T11:48:37;98976.04;;;25.71
47484;BMP280;54076;50.322;18.650;2022-09-09T11:53:55;98979.09;;;26.24
47484;BMP280;54076;50.322;18.650;2022-09-09T11:58:58;98974.30;;;27.29
47484;BMP280;54076;50.322;18.650;2022-09-09T12:19:47;98951.85;;;28.51
47484;BMP280;54076;50.322;18.650;2022-09-09T12:30:29;98953.16;;;26.85
47484;BMP280;54076;50.322;18.650;2022-09-09T12:35:32;98959.01;;;26.71
47484;BMP280;54076;50.322;18.650;2022-09-09T12:40:34;98963.73;;;26.79
47484;BMP280;54076;50.322;18.650;2022-09-09T12:45:40;98974.57;;;27.26
47484;BMP280;54076;50.322;18.650;2022-09-09T12:50:50;98964.18;;;27.82
47484;BMP280;54076;50.322;18.650;2022-09-09T12:56:08;98959.59;;;28.44
47484;BMP280;54076;50.322;18.650;2022-09-09T13:01:26;98952.42;;;28.22
47484;BMP280;54076;50.322;18.650;2022-09-09T13:06:32;98953.44;;;28.22
47484;BMP280;54076;50.322;18.650;2022-09-09T13:11:41;98946.38;;;28.81
47484;BMP280;54076;50.322;18.650;2022-09-09T13:17:04;98940.21;;;28.11
47484;BMP280;54076;50.322;18.650;2022-09-09T13:22:35;98927.29;;;28.66
47484;BMP280;54076;50.322;18.650;2022-09-09T13:27:41;98917.46;;;27.58
47484;BMP280;54076;50.322;18.650;2022-09-09T13:32:43;98915.73;;;27.46
47484;BMP280;54076;50.322;18.650;2022-09-09T13:37:44;98908.70;;;26.60
47484;BMP280;54076;50.322;18.650;2022-09-09T13:42:45;98899.22;;;26.13
47484;BMP280;54076;50.322;18.650;2022-09-09T13:47:46;98899.64;;;25.86
47484;BMP280;54076;50.322;18.650;2022-09-09T13:52:50;98897.74;;;25.64
47484;BMP280;54076;50.322;18.650;2022-09-09T13:58:04;98886.15;;;25.43
47484;BMP280;54076;50.322;18.650;2022-09-09T14:03:06;98887.21;;;25.23
47484;BMP280;54076;50.322;18.650;2022-09-09T14:08:20;98878.79;;;25.21
47484;BMP280;54076;50.322;18.650;2022-09-09T14:13:22;98879.20;;;25.10
47484;BMP280;54076;50.322;18.650;2022-09-09T14:18:23;98881.16;;;25.02
47484;BMP280;54076;50.322;18.650;2022-09-09T14:23:26;98879.02;;;24.96
47484;BMP280;54076;50.322;18.650;2022-09-09T14:28:27;98885.89;;;24.77
47484;BMP280;54076;50.322;18.650;2022-09-09T14:33:30;98890.60;;;24.67
47484;BMP280;54076;50.322;18.650;2022-09-09T14:38:36;98879.64;;;24.75
47484;BMP280;54076;50.322;18.650;2022-09-09T14:43:40;98872.94;;;24.79
47484;BMP280;54076;50.322;18.650;2022-09-09T14:48:42;98873.95;;;24.60
47484;BMP280;54076;50.322;18.650;2022-09-09T14:53:45;98877.52;;;24.46
47484;BMP280;54076;50.322;18.650;2022-09-09T14:58:47;98882.63;;;24.35
47484;BMP280;54076;50.322;18.650;2022-09-09T15:03:58;98877.70;;;23.97
47484;BMP280;54076;50.322;18.650;2022-09-09T15:09:00;98876.30;;;23.84
47484;BMP280;54076;50.322;18.650;2022-09-09T15:14:01;98879.15;;;23.75
47484;BMP280;54076;50.322;18.650;2022-09-09T15:19:03;98891.64;;;23.68
47484;BMP280;54076;50.322;18.650;2022-09-09T15:24:05;98890.75;;;23.49
47484;BMP280;54076;50.322;18.650;2022-09-09T15:29:08;98885.88;;;23.43
47484;BMP280;54076;50.322;18.650;2022-09-09T15:34:09;98879.30;;;23.49
47484;BMP280;54076;50.322;18.650;2022-09-09T15:39:13;98892.61;;;23.43
47484;BMP280;54076;50.322;18.650;2022-09-09T15:44:16;98903.29;;;23.00
47484;BMP280;54076;50.322;18.650;2022-09-09T15:49:23;98897.64;;;22.96
47484;BMP280;54076;50.322;18.650;2022-09-09T15:54:26;98895.31;;;22.92
47484;BMP280;54076;50.322;18.650;2022-09-09T15:59:29;98900.12;;;22.76
47484;BMP280;54076;50.322;18.650;2022-09-09T16:04:31;98900.54;;;22.67
47484;BMP280;54076;50.322;18.650;2022-09-09T16:09:33;98896.56;;;22.58
47484;BMP280;54076;50.322;18.650;2022-09-09T16:14:35;98889.77;;;22.52
47484;BMP280;54076;50.322;18.650;2022-09-09T16:19:36;98884.39;;;22.45
47484;BMP280;54076;50.322;18.650;2022-09-09T16:24:38;98878.37;;;22.21
47484;BMP280;54076;50.322;18.650;2022-09-09T16:29:39;98876.79;;;22.15
47484;BMP280;54076;50.322;18.650;2022-09-09T16:34:40;98882.21;;;22.06
47484;BMP280;54076;50.322;18.650;2022-09-09T16:39:43;98880.61;;;21.82
47484;BMP280;54076;50.322;18.650;2022-09-09T16:44:44;98876.60;;;21.59
47484;BMP280;54076;50.322;18.650;2022-09-09T16:49:45;98877.62;;;21.46
47484;BMP280;54076;50.322;18.650;2022-09-09T16:54:46;98883.80;;;21.41
47484;BMP280;54076;50.322;18.650;2022-09-09T16:59:47;98889.86;;;21.13
47484;BMP280;54076;50.322;18.650;2022-09-09T17:04:48;98888.53;;;20.96
47484;BMP280;54076;50.322;18.650;2022-09-09T17:09:49;98878.12;;;20.70
47484;BMP280;54076;50.322;18.650;2022-09-09T17:14:50;98875.66;;;20.66
47484;BMP280;54076;50.322;18.650;2022-09-09T17:19:52;98884.29;;;20.81
47484;BMP280;54076;50.322;18.650;2022-09-09T17:24:53;98885.89;;;20.73
47484;BMP280;54076;50.322;18.650;2022-09-09T17:29:55;98889.05;;;20.67
47484;BMP280;54076;50.322;18.650;2022-09-09T17:34:56;98901.69;;;20.65
47484;BMP280;54076;50.322;18.650;2022-09-09T17:39:57;98908.30;;;20.37
47484;BMP280;54076;50.322;18.650;2022-09-09T17:44:58;98911.81;;;20.18
47484;BMP280;54076;50.322;18.650;2022-09-09T17:50:00;98907.06;;;20.03
47484;BMP280;54076;50.322;18.650;2022-09-09T17:55:00;98912.11;;;19.95
47484;BMP280;54076;50.322;18.650;2022-09-09T18:00:05;98912.20;;;19.96
47484;BMP280;54076;50.322;18.650;2022-09-09T18:05:07;98913.95;;;19.89
47484;BMP280;54076;50.322;18.650;2022-09-09T18:10:08;98917.27;;;19.72
47484;BMP280;54076;50.322;18.650;2022-09-09T18:15:10;98915.58;;;19.59
47484;BMP280;54076;50.322;18.650;2022-09-09T18:20:12;98915.73;;;19.30
47484;BMP280;54076;50.322;18.650;2022-09-09T18:25:13;98916.64;;;19.36
47484;BMP280;54076;50.322;18.650;2022-09-09T18:30:14;98929.11;;;19.35
47484;BMP280;54076;50.322;18.650;2022-09-09T18:35:15;98934.27;;;19.28
47484;BMP280;54076;50.322;18.650;2022-09-09T18:40:16;98940.08;;;19.25
47484;BMP280;54076;50.322;18.650;2022-09-09T18:45:17;98946.64;;;19.23
47484;BMP280;54076;50.322;18.650;2022-09-09T18:50:18;98946.84;;;19.16
47484;BMP280;54076;50.322;18.650;2022-09-09T18:55:19;98949.81;;;19.06
47484;BMP280;54076;50.322;18.650;2022-09-09T19:00:21;98949.09;;;19.06
47484;BMP280;54076;50.322;18.650;2022-09-09T19:05:22;98949.48;;;18.98
47484;BMP280;54076;50.322;18.650;2022-09-09T19:10:23;98953.47;;;18.93
47484;BMP280;54076;50.322;18.650;2022-09-09T19:15:24;98951.88;;;18.82
47484;BMP280;54076;50.322;18.650;2022-09-09T19:20:25;98948.80;;;18.78
47484;BMP280;54076;50.322;18.650;2022-09-09T19:25:27;98950.90;;;18.89
47484;BMP280;54076;50.322;18.650;2022-09-09T19:30:29;98944.60;;;19.00
47484;BMP280;54076;50.322;18.650;2022-09-09T19:35:30;98946.54;;;19.11
47484;BMP280;54076;50.322;18.650;2022-09-09T19:40:34;98944.96;;;19.16
47484;BMP280;54076;50.322;18.650;2022-09-09T19:45:35;98942.30;;;19.26
47484;BMP280;54076;50.322;18.650;2022-09-09T19:50:36;98936.70;;;19.54
47484;BMP280;54076;50.322;18.650;2022-09-09T19:55:38;98939.36;;;19.52
47484;BMP280;54076;50.322;18.650;2022-09-09T20:00:39;98941.36;;;19.46
47484;BMP280;54076;50.322;18.650;2022-09-09T20:05:40;98942.02;;;19.37
47484;BMP280;54076;50.322;18.650;2022-09-09T20:10:50;98944.91;;;19.38
47484;BMP280;54076;50.322;18.650;2022-09-09T20:16:03;98948.34;;;19.42
47484;BMP280;54076;50.322;18.650;2022-09-09T20:21:16;98950.33;;;19.24
47484;BMP280;54076;50.322;18.650;2022-09-09T20:26:23;98950.61;;;19.11
47484;BMP280;54076;50.322;18.650;2022-09-09T20:31:33;98943.99;;;19.09
47484;BMP280;54076;50.322;18.650;2022-09-09T20:36:41;98949.11;;;19.17
47484;BMP280;54076;50.322;18.650;2022-09-09T20:41:44;98946.45;;;19.16
47484;BMP280;54076;50.322;18.650;2022-09-09T20:46:52;98946.10;;;19.11
47484;BMP280;54076;50.322;18.650;2022-09-09T20:51:55;98944.59;;;18.88
47484;BMP280;54076;50.322;18.650;2022-09-09T20:56:56;98949.01;;;18.74
47484;BMP280;54076;50.322;18.650;2022-09-09T21:01:59;98949.88;;;18.65
47484;BMP280;54076;50.322;18.650;2022-09-09T21:07:01;98948.99;;;18.61
47484;BMP280;54076;50.322;18.650;2022-09-09T21:12:04;98944.09;;;18.76
47484;BMP280;54076;50.322;18.650;2022-09-09T21:17:05;98940.02;;;18.69
47484;BMP280;54076;50.322;18.650;2022-09-09T21:22:06;98944.66;;;18.67
47484;BMP280;54076;50.322;18.650;2022-09-09T21:27:07;98949.23;;;18.57
47484;BMP280;54076;50.322;18.650;2022-09-09T21:32:08;98950.63;;;18.42
47484;BMP280;54076;50.322;18.650;2022-09-09T21:37:09;98947.33;;;18.36
47484;BMP280;54076;50.322;18.650;2022-09-09T21:42:09;98948.15;;;18.48
47484;BMP280;54076;50.322;18.650;2022-09-09T21:47:10;98943.61;;;18.69
47484;BMP280;54076;50.322;18.650;2022-09-09T21:52:12;98945.35;;;18.59
47484;BMP280;54076;50.322;18.650;2022-09-09T21:57:12;98944.35;;;18.58
47484;BMP280;54076;50.322;18.650;2022-09-09T22:02:14;98945.13;;;18.45
47484;BMP280;54076;50.322;18.650;2022-09-09T22:07:16;98946.60;;;18.34
47484;BMP280;54076;50.322;18.650;2022-09-09T22:12:17;98944.43;;;18.31
47484;BMP280;54076;50.322;18.650;2022-09-09T22:17:19;98944.54;;;18.28
47484;BMP280;54076;50.322;18.650;2022-09-09T22:22:20;98942.05;;;18.28
47484;BMP280;54076;50.322;18.650;2022-09-09T22:27:21;98942.80;;;18.31
47484;BMP280;54076;50.322;18.650;2022-09-09T22:32:22;98952.86;;;18.26
47484;BMP280;54076;50.322;18.650;2022-09-09T22:37:24;98947.80;;;18.16
47484;BMP280;54076;50.322;18.650;2022-09-09T22:42:25;98950.29;;;18.00
47484;BMP280;54076;50.322;18.650;2022-09-09T22:47:26;98954.73;;;17.82
47484;BMP280;54076;50.322;18.650;2022-09-09T22:52:28;98966.83;;;17.73
47484;BMP280;54076;50.322;18.650;2022-09-09T22:57:31;98967.27;;;17.90
47484;BMP280;54076;50.322;18.650;2022-09-09T23:02:32;98968.72;;;18.07
47484;BMP280;54076;50.322;18.650;2022-09-09T23:07:35;98966.30;;;18.16
47484;BMP280;54076;50.322;18.650;2022-09-09T23:12:36;98969.92;;;18.24
47484;BMP280;54076;50.322;18.650;2022-09-09T23:17:39;98982.45;;;18.21
47484;BMP280;54076;50.322;18.650;2022-09-09T23:22:40;98986.14;;;18.30
47484;BMP280;54076;50.322;18.650;2022-09-09T23:27:41;98994.48;;;18.28
47484;BMP280;54076;50.322;18.650;2022-09-09T23:32:43;98997.67;;;18.00
47484;BMP280;54076;50.322;18.650;2022-09-09T23:37:46;98996.48;;;17.88
47484;BMP280;54076;50.322;18.650;2022-09-09T23:42:47;98991.73;;;17.87
47484;BMP280;54076;50.322;18.650;2022-09-09T23:47:48;98981.38;;;17.84
47484;BMP280;54076;50.322;18.650;2022-09-09T23:52:49;98971.23;;;17.74
47484;BMP280;54076;50.322;18.650;2022-09-09T23:57:52;98934.91;;;17.75
